Time;durP1;ratioP1;P1;durP2;ratioP2;P2;SDS_P1;SDS_P2;PMS_P1;PMS_P2;Temp;Humidity;BMP_temperature;BMP_pressure;BME280_temperature;BME280_humidity;BME280_pressure;Samples;Min_cycle;Max_cycle;Signal;HPM_P1;HPM_P2
2022/10/26 00:02:10;;;;;;;24.05;15.98;;;;;;;;;;6249710;22;20027;-90
2022/10/26 00:08:06;;;;;;;27.17;15.80;;;;;;;;;;6276624;22;20478;-91
2022/10/26 00:13:37;;;;;;;21.13;15.40;;;;;;;;;;6276798;22;20110;-93
2022/10/26 00:22:10;;;;;;;22.42;16.88;;;;;;;;;;6308024;22;20030;-90
2022/10/26 00:24:43;;;;;;;24.33;15.65;;;;;;;;;;6293774;22;20023;-93
2022/10/26 00:27:10;;;;;;;33.13;16.95;;;;;;;;;;6298023;22;20019;-90
2022/10/26 00:35:53;;;;;;;30.25;17.45;;;;;;;;;;6290606;22;20030;-89
2022/10/26 00:38:23;;;;;;;38.20;18.42;;;;;;;;;;6248734;23;20393;-91
2022/10/26 00:40:51;;;;;;;30.40;17.55;;;;;;;;;;6219330;23;20039;-90
2022/10/26 00:43:56;;;;;;;28.58;17.27;;;;;;;;;;6225428;23;20456;-91
2022/10/26 00:46:39;;;;;;;34.50;19.17;;;;;;;;;;6224950;22;20097;-91
2022/10/26 00:52:21;;;;;;;33.88;18.38;;;;;;;;;;6312142;22;20030;-90
2022/10/26 00:57:59;;;;;;;31.88;18.80;;;;;;;;;;6312893;22;20031;-94
2022/10/26 01:00:51;;;;;;;28.77;16.90;;;9.90;99.90;;;;;;6252380;22;20027;-92
2022/10/26 01:03:27;;;;;;;33.72;16.50;;;;;;;;;;6272862;22;20026;-91
2022/10/26 01:05:57;;;;;;;25.63;17.52;;;;;;;;;;6252644;22;20030;-91
2022/10/26 01:08:30;;;;;;;25.63;16.88;;;;;;;;;;6275980;22;20110;-88
2022/10/26 01:11:22;;;;;;;31.80;18.58;;;;;;;;;;6272478;22;20102;-90
2022/10/26 01:13:51;;;;;;;33.88;17.67;;;;;;;;;;6247218;22;20016;-89
2022/10/26 01:19:36;;;;;;;33.10;19.25;;;;;;;;;;6304429;22;20065;-90
2022/10/26 01:22:34;;;;;;;36.90;18.67;;;;;;;;;;6252334;22;20034;-91
2022/10/26 01:25:35;;;;;;;28.15;18.17;;;;;;;;;;6278691;22;20102;-92
2022/10/26 01:28:20;;;;;;;30.02;18.55;;;;;;;;;;6253633;22;20057;-93
2022/10/26 01:31:16;;;;;;;34.83;20.13;;;;;;;;;;6254630;22;20309;-93
2022/10/26 01:39:18;;;;;;;30.33;18.70;;;;;;;;;;6302998;22;20030;-92
2022/10/26 01:41:49;;;;;;;35.88;20.73;;;;;;;;;;6274571;22;20026;-92
2022/10/26 01:44:35;;;;;;;34.35;19.00;;;;;;;;;;6251699;22;20038;-92
2022/10/26 01:47:35;;;;;;;31.67;18.27;;;;;;;;;;6268375;22;20121;-90
2022/10/26 01:53:27;;;;;;;27.77;17.05;;;;;;;;;;6306479;22;19939;-92
2022/10/26 01:56:41;;;;;;;32.33;17.65;;;9.60;99.90;;;;;;6255982;22;20046;-88
2022/10/26 02:05:24;;;;;;;29.38;17.52;;;;;;;;;;6280311;22;20064;-91
2022/10/26 02:08:19;;;;;;;27.80;16.27;;;;;;;;;;6247017;22;20041;-90
2022/10/26 02:14:46;;;;;;;28.83;18.13;;;;;;;;;;6304849;22;20118;-91
2022/10/26 02:17:12;;;;;;;30.75;18.02;;;;;;;;;;6252379;22;20024;-91
2022/10/26 02:19:39;;;;;;;29.38;18.60;;;;;;;;;;6280796;22;20065;-93
2022/10/26 02:22:18;;;;;;;32.03;19.58;;;;;;;;;;6252901;22;20026;-91
2022/10/26 02:24:53;;;;;;;34.40;19.13;;;;;;;;;;6278191;22;20099;-90
2022/10/26 02:27:49;;;;;;;31.60;18.55;;;;;;;;;;6251344;22;20054;-92
2022/10/26 02:30:21;;;;;;;31.17;18.88;;;;;;;;;;6252163;22;20094;-94
2022/10/26 02:35:29;;;;;;;34.67;19.92;;;;;;;;;;6304903;22;20076;-91
2022/10/26 02:40:28;;;;;;;33.40;19.33;;;;;;;;;;6303113;22;20030;-91
2022/10/26 02:43:29;;;;;;;30.48;19.02;;;;;;;;;;6275393;22;20023;-92
2022/10/26 02:46:17;;;;;;;27.02;19.02;;;;;;;;;;6249372;22;20018;-92
2022/10/26 02:58:54;;;;;;;32.03;18.75;;;;;;;;;;6278432;22;20019;-90
2022/10/26 03:07:58;;;;;;;33.97;19.42;;;;;;;;;;6271737;22;20022;-92
2022/10/26 03:10:32;;;;;;;27.67;19.10;;;;;;;;;;6253312;22;20122;-91
2022/10/26 03:12:59;;;;;;;32.28;17.58;;;;;;;;;;6278691;22;20045;-91
2022/10/26 03:15:25;;;;;;;34.67;18.40;;;;;;;;;;6228547;22;20341;-92
2022/10/26 03:17:54;;;;;;;21.40;16.40;;;;;;;;;;6253816;22;20023;-92
2022/10/26 03:20:20;;;;;;;23.23;16.85;;;;;;;;;;6234428;22;20061;-92
2022/10/26 03:22:47;;;;;;;27.48;18.55;;;;;;;;;;6263325;22;20363;-91
2022/10/26 03:25:30;;;;;;;31.33;17.30;;;;;;;;;;6296975;22;20042;-90
2022/10/26 03:33:35;;;;;;;31.60;18.67;;;;;;;;;;6242916;23;20020;-91
2022/10/26 03:36:02;;;;;;;26.23;17.73;;;;;;;;;;6186948;23;20078;-90
2022/10/26 03:38:40;;;;;;;32.03;19.05;;;;;;;;;;6163083;23;20390;-91
2022/10/26 03:41:25;;;;;;;32.13;18.45;;;;;;;;;;6159420;23;20021;-89
2022/10/26 03:46:23;;;;;;;29.30;19.73;;;;;;;;;;6304395;22;20865;-91
2022/10/26 03:48:49;;;;;;;33.22;19.23;;;;;;;;;;6278094;22;20033;-91
2022/10/26 03:51:15;;;;;;;36.92;19.90;;;;;;;;;;6279545;22;20117;-86
2022/10/26 03:56:29;;;;;;;27.00;19.15;;;;;;;;;;6279915;22;20118;-89
2022/10/26 03:59:08;;;;;;;34.95;19.50;;;;;;;;;;6278760;22;20336;-91
2022/10/26 04:01:34;;;;;;;31.80;18.23;;;;;;;;;;6255366;22;20023;-90
2022/10/26 04:04:09;;;;;;;30.55;18.83;;;;;;;;;;6244308;22;20024;-91
2022/10/26 04:06:35;;;;;;;29.50;18.92;;;;;;;;;;6246662;22;20383;-90
2022/10/26 04:11:51;;;;;;;27.65;18.63;;;;;;;;;;6304092;22;20023;-91
2022/10/26 04:23:45;;;;;;;33.40;19.35;;;;;;;;;;6280275;22;20027;-91
2022/10/26 04:26:24;;;;;;;29.20;20.77;;;;;;;;;;6254248;22;20019;-91
2022/10/26 04:28:56;;;;;;;34.20;20.27;;;;;;;;;;6255060;22;20076;-90
2022/10/26 04:31:25;;;;;;;34.80;19.65;;;;;;;;;;6253258;22;20047;-93
2022/10/26 04:33:58;;;;;;;35.45;19.67;;;;;;;;;;6282443;22;20451;-92
2022/10/26 04:36:40;;;;;;;33.65;20.52;;;;;;;;;;6264341;22;20019;-90
2022/10/26 04:41:45;;;;;;;34.95;19.35;;;;;;;;;;6313479;22;21039;-92
2022/10/26 04:44:31;;;;;;;33.72;20.17;;;;;;;;;;6254986;22;20023;-91
2022/10/26 04:47:31;;;;;;;35.95;20.83;;;;;;;;;;6256231;22;20038;-92
2022/10/26 04:53:08;;;;;;;33.50;20.60;;;;;;;;;;6277389;22;20023;-89
2022/10/26 04:55:43;;;;;;;39.42;21.90;;;;;;;;;;6302776;22;20026;-90
2022/10/26 04:58:12;;;;;;;37.92;20.90;;;;;;;;;;6250149;22;20026;-90
2022/10/26 05:00:38;;;;;;;37.33;21.95;;;;;;;;;;6249896;22;20376;-88
2022/10/26 05:03:07;;;;;;;37.15;22.77;;;;;;;;;;6278904;22;20098;-89
2022/10/26 05:11:50;;;;;;;44.55;23.30;;;;;;;;;;6279822;22;20030;-90
2022/10/26 05:14:47;;;;;;;41.05;23.40;;;;;;;;;;6279906;22;20253;-90
2022/10/26 05:17:20;;;;;;;41.67;22.83;;;;;;;;;;6279285;22;20361;-89
2022/10/26 05:20:05;;;;;;;37.85;22.95;;;;;;;;;;6257725;22;20094;-90
2022/10/26 05:23:05;;;;;;;35.97;22.20;;;;;;;;;;6283546;22;20034;-90
2022/10/26 05:25:33;;;;;;;34.47;21.23;;;;;;;;;;6281424;22;20348;-89
2022/10/26 05:28:04;;;;;;;34.35;22.15;;;;;;;;;;6278586;22;20048;-88
2022/10/26 05:30:59;;;;;;;34.55;21.88;;;;;;;;;;6274274;22;20114;-90
2022/10/26 05:33:27;;;;;;;39.47;22.85;;;;;;;;;;6306129;22;20030;-90
2022/10/26 05:35:56;;;;;;;38.65;22.02;;;;;;;;;;6230354;22;20027;-89
2022/10/26 05:40:52;;;;;;;37.20;22.98;;;;;;;;;;6306641;22;20034;-90
2022/10/26 05:43:37;;;;;;;43.95;23.60;;;;;;;;;;6283681;22;20057;-89
2022/10/26 05:46:19;;;;;;;43.63;23.35;;;;;;;;;;6282990;22;20050;-90
2022/10/26 05:48:45;;;;;;;37.97;23.27;;;;;;;;;;6257603;22;20019;-90
2022/10/26 05:51:17;;;;;;;36.40;23.13;;;;;;;;;;6287818;22;20020;-90
2022/10/26 05:53:56;;;;;;;36.55;21.65;;;;;;;;;;6267175;22;20053;-89
2022/10/26 05:56:47;;;;;;;37.78;22.40;;;;;;;;;;6279922;22;20448;-89
2022/10/26 05:59:15;;;;;;;40.63;22.60;;;;;;;;;;6278684;22;20102;-89
2022/10/26 06:01:53;;;;;;;31.17;22.02;;;;;;;;;;6252815;22;20022;-89
2022/10/26 06:04:19;;;;;;;34.70;21.40;;;;;;;;;;6277739;22;20015;-89
2022/10/26 06:06:46;;;;;;;38.35;21.45;;;;;;;;;;6278002;22;20023;-90
2022/10/26 06:09:22;;;;;;;37.63;20.95;;;;;;;;;;6304586;22;20030;-90
2022/10/26 06:11:54;;;;;;;32.67;20.35;;;;;;;;;;6253281;22;20020;-90
2022/10/26 06:14:21;;;;;;;36.53;21.48;;;;;;;;;;6277603;22;20015;-89
2022/10/26 06:20:16;;;;;;;33.10;20.38;;;;;;;;;;6277357;22;20152;-89
2022/10/26 06:23:10;;;;;;;34.35;20.55;;;;;;;;;;6278785;22;20172;-89
2022/10/26 06:25:51;;;;;;;35.47;18.50;;;;;;;;;;6304263;22;20360;-88
2022/10/26 06:28:17;;;;;;;32.72;18.40;;;;;;;;;;6276166;22;20026;-88
2022/10/26 06:30:43;;;;;;;29.23;18.02;;;;;;;;;;6302677;22;20011;-87
2022/10/26 06:33:14;;;;;;;26.15;17.63;;;;;;;;;;6304840;22;20501;-87
2022/10/26 06:35:40;;;;;;;29.02;17.27;;;;;;;;;;6249832;22;20098;-87
2022/10/26 06:38:30;;;;;;;27.85;17.58;;;;;;;;;;6250725;22;20023;-88
2022/10/26 06:44:17;;;;;;;29.02;17.00;;;;;;;;;;6270655;22;20019;-89
2022/10/26 06:47:05;;;;;;;30.63;18.50;;;;;;;;;;6246334;22;20022;-87
2022/10/26 06:49:36;;;;;;;34.13;21.65;;;;;;;;;;6270594;22;20026;-87
2022/10/26 06:52:05;;;;;;;33.90;19.08;;;;;;;;;;6270688;22;20027;-87
2022/10/26 06:54:53;;;;;;;31.67;17.85;;;;;;;;;;6244858;22;20551;-89
2022/10/26 06:57:36;;;;;;;29.25;17.00;;;;;;;;;;6248451;22;20016;-88
2022/10/26 07:00:27;;;;;;;28.15;16.00;;;;;;;;;;6271803;22;20024;-89
2022/10/26 07:02:57;;;;;;;26.25;15.15;;;;;;;;;;6263898;22;20058;-87
2022/10/26 07:05:23;;;;;;;21.90;14.50;;;;;;;;;;6223093;22;20069;-87
2022/10/26 07:08:05;;;;;;;25.00;15.23;;;;;;;;;;6220477;22;20016;-87
2022/10/26 07:10:37;;;;;;;22.83;15.02;;;;;;;;;;6273684;22;20019;-87
2022/10/26 07:13:05;;;;;;;24.88;14.50;;;;;;;;;;6272399;22;20101;-87
2022/10/26 07:15:31;;;;;;;22.60;13.93;;;;;;;;;;6247076;22;20470;-87
2022/10/26 07:18:04;;;;;;;23.98;14.55;;;;;;;;;;6245579;22;20011;-88
2022/10/26 07:21:09;;;;;;;26.15;13.68;;;;;;;;;;6247770;22;20337;-88
2022/10/26 07:23:35;;;;;;;24.52;12.90;;;;;;;;;;6237687;22;20090;-87
2022/10/26 07:26:03;;;;;;;23.05;14.20;;;;;;;;;;6274216;22;20027;-87
2022/10/26 07:28:39;;;;;;;24.10;12.75;;;;;;;;;;6272848;22;20095;-88
2022/10/26 07:31:14;;;;;;;15.88;12.00;;;;;;;;;;6247751;22;20468;-88
2022/10/26 07:33:41;;;;;;;22.50;12.80;;;;;;;;;;6245402;22;20020;-88
2022/10/26 07:36:09;;;;;;;23.80;12.25;;;;;;;;;;6221364;22;20340;-88
2022/10/26 07:38:42;;;;;;;21.10;12.15;;;;;;;;;;6245187;22;20022;-86
2022/10/26 07:41:43;;;;;;;;;;;;;;;;;;;;;
2022/10/26 07:51:02;;;;;;;23.70;11.35;;;;;;;;;;6245830;22;20220;-87
2022/10/26 07:53:28;;;;;;;23.77;11.65;;;;;;;;;;6242683;22;20319;-86
2022/10/26 07:56:01;;;;;;;14.50;11.15;;;;;;;;;;6271749;22;20437;-87
2022/10/26 07:58:30;;;;;;;21.75;11.23;;;;;;;;;;6270479;22;20065;-87
2022/10/26 08:01:06;;;;;;;15.85;10.63;;;;;;;;;;6270496;22;20306;-88
2022/10/26 08:03:48;;;;;;;14.05;10.20;;;;;;;;;;6219506;22;20015;-86
2022/10/26 08:06:14;;;;;;;16.40;11.13;;;;;;;;;;6215654;22;20094;-87
2022/10/26 08:08:40;;;;;;;15.98;10.40;;;;;;;;;;6274352;22;20026;-86
2022/10/26 08:11:06;;;;;;;16.77;10.68;;;;;;;;;;6215923;22;20410;-87
2022/10/26 08:13:34;;;;;;;23.02;10.65;;;;;;;;;;6281278;22;20019;-87
2022/10/26 08:16:01;;;;;;;16.05;9.93;;;;;;;;;;6262547;22;20030;-88
2022/10/26 08:18:30;;;;;;;14.38;11.55;;;;;;;;;;6265711;22;20032;-87
2022/10/26 08:21:05;;;;;;;17.33;10.50;;;;;;;;;;6280066;22;20054;-87
2022/10/26 08:23:35;;;;;;;13.52;10.68;;;;;;;;;;6245454;22;20019;-87
2022/10/26 08:26:02;;;;;;;18.50;10.15;;;;;;;;;;6219784;22;20057;-87
2022/10/26 08:28:28;;;;;;;18.40;10.43;;;;;;;;;;6254985;22;20385;-86
2022/10/26 08:31:10;;;;;;;15.38;10.10;;;;;;;;;;6278615;22;20073;-88
2022/10/26 08:33:39;;;;;;;14.27;10.00;;;;;;;;;;6245856;22;20077;-88
2022/10/26 08:36:06;;;;;;;18.77;10.60;;;;;;;;;;6277835;22;20020;-87
2022/10/26 08:38:41;;;;;;;23.55;10.05;;;;;;;;;;6253036;22;20020;-86
2022/10/26 08:41:08;;;;;;;16.30;10.43;;;;;;;;;;6232198;22;20023;-83
2022/10/26 08:43:34;;;;;;;11.55;9.25;;;;;;;;;;6256428;22;20026;-85
2022/10/26 08:46:04;;;;;;;15.20;10.25;;;;;;;;;;6259057;22;20016;-84
2022/10/26 08:48:33;;;;;;;14.25;9.82;;;;;;;;;;6270093;22;20023;-85
2022/10/26 08:51:01;;;;;;;17.70;9.90;;;;;;;;;;6271632;22;20463;-86
2022/10/26 08:53:33;;;;;;;14.65;10.27;;;;;;;;;;6269240;22;20038;-85
2022/10/26 08:56:03;;;;;;;13.35;10.02;;;;;;;;;;6245045;22;20130;-84
2022/10/26 08:58:38;;;;;;;13.25;9.77;;;;;;;;;;6268911;22;20038;-84
2022/10/26 09:01:04;;;;;;;15.50;10.13;;;;;;;;;;6268152;22;20678;-85
2022/10/26 09:03:31;;;;;;;13.55;9.02;;;;;;;;;;6268121;22;20029;-86
2022/10/26 09:06:05;;;;;;;12.00;9.55;;;;;;;;;;6268177;22;20012;-85
2022/10/26 09:08:34;;;;;;;14.85;9.57;;;;;;;;;;6269802;22;20030;-84
2022/10/26 09:11:03;;;;;;;12.65;9.23;;;;;;;;;;6268162;22;20051;-85
2022/10/26 09:13:48;;;;;;;11.15;8.88;;;;;;;;;;6269753;22;20072;-84
2022/10/26 09:16:30;;;;;;;15.23;9.10;;;;;;;;;;6267682;22;20019;-85
2022/10/26 09:19:15;;;;;;;10.68;8.50;;;;;;;;;;6269937;22;20043;-87
2022/10/26 09:21:53;;;;;;;14.13;9.18;;;;;;;;;;6267612;22;20110;-85
2022/10/26 09:24:31;;;;;;;11.82;7.63;;;;;;;;;;6271814;22;20080;-84
2022/10/26 09:27:19;;;;;;;11.88;7.25;;;;;;;;;;6269272;22;20348;-84
2022/10/26 09:29:45;;;;;;;15.75;8.82;;;;;;;;;;6269513;22;20024;-85
2022/10/26 09:32:22;;;;;;;10.13;7.15;;;;;;;;;;6270392;22;20340;-83
2022/10/26 09:35:01;;;;;;;10.57;6.82;;;;;;;;;;6294275;22;20024;-87
2022/10/26 09:37:29;;;;;;;10.77;6.82;;;;;;;;;;6268813;22;20099;-84
2022/10/26 09:40:06;;;;;;;13.10;7.05;;;;;;;;;;6274868;22;20034;-84
2022/10/26 09:42:43;;;;;;;13.00;6.45;;;;;;;;;;6276947;22;20020;-85
2022/10/26 09:52:33;;;;;;;13.37;6.20;;;;;;;;;;6298836;22;20103;-89
2022/10/26 09:55:03;;;;;;;10.27;5.70;;;;;;;;;;6298066;22;20265;-87
2022/10/26 10:00:40;;;;;;;9.02;5.55;;;;;;;;;;6273846;22;20455;-87
2022/10/26 10:03:19;;;;;;;14.13;5.18;;;;;;;;;;6270308;22;20036;-87
2022/10/26 10:05:45;;;;;;;9.52;4.22;;;;;;;;;;6273311;22;20019;-87
2022/10/26 10:08:19;;;;;;;10.13;4.78;;;;;;;;;;6222334;22;20023;-85
2022/10/26 10:11:05;;;;;;;10.23;4.65;;;;;;;;;;6269679;22;20051;-86
2022/10/26 10:13:39;;;;;;;9.43;4.65;;;;;;;;;;6244115;22;20081;-86
2022/10/26 10:19:38;;;;;;;8.73;4.22;;;;;;;;;;6145242;23;20083;-87
2022/10/26 10:28:20;;;;;;;5.40;3.97;;;;;;;;;;6244146;22;20019;-86
2022/10/26 10:30:58;;;;;;;6.50;3.17;;;;;;;;;;6216501;22;20015;-87
2022/10/26 10:33:34;;;;;;;8.70;4.05;;;;;;;;;;6273367;22;20016;-87
2022/10/26 10:39:25;;;;;;;4.05;2.97;;;;;;;;;;6274668;22;20318;-86
2022/10/26 10:42:03;;;;;;;9.05;2.88;;;;;;;;;;6246601;22;20027;-86
2022/10/26 10:44:30;;;;;;;11.63;3.17;;;;;;;;;;6207030;22;20035;-87
2022/10/26 10:47:03;;;;;;;7.47;3.50;;;;;;;;;;6283947;22;20050;-86
2022/10/26 10:53:23;;;;;;;5.30;2.50;;;;;;;;;;6160919;22;20098;-87
2022/10/26 10:56:12;;;;;;;4.80;2.63;;;;;;;;;;6272967;22;20106;-87
2022/10/26 10:59:03;;;;;;;5.93;3.22;;;;;;;;;;6125675;23;20027;-87
2022/10/26 11:01:55;;;;;;;7.32;2.30;;;;;;;;;;6246426;22;20100;-87
2022/10/26 11:04:49;;;;;;;7.20;2.30;;;;;;;;;;6270235;22;20023;-87
2022/10/26 11:07:16;;;;;;;8.50;3.08;;;;;;;;;;6249318;22;20027;-87
2022/10/26 11:09:49;;;;;;;6.43;2.38;;;;;;;;;;6296327;22;20402;-87
2022/10/26 11:12:24;;;;;;;6.37;2.30;;;;;;;;;;6273865;22;20054;-87
2022/10/26 11:18:26;;;;;;;7.07;2.92;;;;;;;;;;6305634;22;20034;-86
2022/10/26 11:21:21;;;;;;;6.30;2.70;;;;;;;;;;6264683;22;20020;-86
2022/10/26 11:26:43;;;;;;;5.75;2.75;;;;;;;;;;6268382;22;20370;-87
2022/10/26 11:29:30;;;;;;;6.32;2.30;;;;;;;;;;6251747;22;20795;-86
2022/10/26 11:32:10;;;;;;;9.18;2.97;;;;;;;;;;6244785;22;20089;-87
2022/10/26 11:38:24;;;;;;;6.30;3.08;;;;;;;;;;6229939;22;20045;-88
2022/10/26 11:41:15;;;;;;;5.70;2.90;;;;;;;;;;6276325;22;20061;-89
2022/10/26 11:44:02;;;;;;;9.35;3.28;;;;;;;;;;6275731;22;20359;-90
2022/10/26 11:46:37;;;;;;;5.30;3.17;;;;;;;;;;6305124;22;20347;-89
2022/10/26 11:49:37;;;;;;;5.75;3.70;;;;;;;;;;6277998;22;20030;-89
2022/10/26 11:52:29;;;;;;;8.70;3.50;;;;;;;;;;6279515;22;20042;-89
2022/10/26 12:02:08;;;;;;;5.03;2.97;;;;;;;;;;6305496;22;20052;-88
2022/10/26 12:05:06;;;;;;;10.90;3.20;;;;;;;;;;6222393;22;20027;-88
2022/10/26 12:07:38;;;;;;;4.88;2.60;;;;;;;;;;6245915;22;20023;-89
2022/10/26 12:22:50;;;;;;;5.35;2.40;;;;;;;;;;6276480;22;20077;-88
2022/10/26 12:28:36;;;;;;;4.70;2.40;;;;;;;;;;6218520;23;20020;-89
2022/10/26 12:31:21;;;;;;;6.78;2.90;;;;;;;;;;6219527;23;20099;-88
2022/10/26 12:40:31;;;;;;;7.43;2.70;;;;;;;;;;6242517;22;20023;-90
2022/10/26 12:49:39;;;;;;;7.45;2.95;;;;;;;;;;6303698;22;20027;-87
2022/10/26 12:52:17;;;;;;;8.05;2.90;;;;;;;;;;6301835;22;20021;-88
2022/10/26 12:55:02;;;;;;;7.25;2.92;;;;;;;;;;6276893;22;20057;-87
2022/10/26 13:03:33;;;;;;;5.13;2.72;;;;;;;;;;6302883;22;20112;-87
2022/10/26 13:12:10;;;;;;;8.40;3.20;;;;;;;;;;6232690;23;20028;-88
2022/10/26 13:14:54;;;;;;;9.85;3.15;;;;;;;;;;6227632;23;20068;-88
2022/10/26 13:17:39;;;;;;;6.03;3.13;;;;;;;;;;6222010;23;20031;-88
2022/10/26 13:20:15;;;;;;;6.63;3.50;;;;;;;;;;6217653;23;20521;-88
2022/10/26 13:22:51;;;;;;;9.55;3.45;;;;;;;;;;6190158;23;20056;-88
2022/10/26 13:25:42;;;;;;;7.88;3.40;;;;;;;;;;6216561;23;20027;-89
2022/10/26 13:28:37;;;;;;;8.25;3.10;;;;;;;;;;6243028;23;20027;-88
2022/10/26 13:31:04;;;;;;;6.38;3.00;;;;;;;;;;6210871;23;20368;-88
2022/10/26 13:34:05;;;;;;;11.15;2.72;;;;;;;;;;6242838;23;20027;-87
2022/10/26 13:43:02;;;;;;;6.55;2.67;;;;;;;;;;6272288;22;20269;-87
2022/10/26 13:45:29;;;;;;;;;;;;;;;;;;6247898;22;20102;-88
2022/10/26 13:48:14;;;;;;;7.97;3.05;;;;;;;;;;6223150;22;19992;-87
2022/10/26 13:50:59;;;;;;;9.95;3.28;;;;;;;;;;6247562;22;20352;-87
2022/10/26 13:57:10;;;;;;;7.85;3.33;;;;;;;;;;6274792;22;20115;-88
2022/10/26 13:59:42;;;;;;;10.40;3.45;;;;;;;;;;6276372;22;20027;-88
2022/10/26 14:02:32;;;;;;;11.30;4.32;;;;;;;;;;6275127;22;20585;-88
2022/10/26 14:08:20;;;;;;;8.77;3.80;;;;;;;;;;6253156;22;20016;-87
2022/10/26 14:10:54;;;;;;;7.80;3.50;;;;;;;;;;6271197;22;20023;-88
2022/10/26 14:19:55;;;;;;;8.88;3.35;;;;;;;;;;6151583;23;20473;-87
2022/10/26 14:22:40;;;;;;;;;;;;;;;;;;6235755;22;20031;-88
2022/10/26 14:25:17;;;;;;;10.95;4.07;;;;;;;;;;6249192;22;19926;-89
2022/10/26 14:27:49;;;;;;;7.88;3.78;;;;;;;;;;6247269;22;20066;-88
2022/10/26 14:33:53;;;;;;;13.05;4.93;;;;;;;;;;6278647;22;20042;-87
2022/10/26 14:36:33;;;;;;;10.05;3.90;;;;;;;;;;6278770;22;20023;-87
2022/10/26 14:39:21;;;;;;;8.82;3.97;;;;;;;;;;6248429;22;20094;-88
2022/10/26 14:44:56;;;;;;;10.88;4.43;;;;;;;;;;6225123;22;20026;-88
2022/10/26 14:47:39;;;;;;;10.32;4.35;;;;;;;;;;6273511;22;20091;-86
2022/10/26 14:50:22;;;;;;;9.77;4.50;;;;;;;;;;6220645;22;20020;-87
2022/10/26 14:52:55;;;;;;;8.07;3.72;;;;;;;;;;6222386;22;20424;-87
2022/10/26 14:55:43;;;;;;;10.23;4.95;;;;;;;;;;6225658;22;20096;-88
2022/10/26 14:58:31;;;;;;;11.25;4.55;;;;;;;;;;6211102;23;20150;-87
2022/10/26 15:01:19;;;;;;;15.43;4.78;;;;;;;;;;6186766;23;20036;-86
2022/10/26 15:04:03;;;;;;;8.65;4.97;;;;;;;;;;6209461;23;20354;-88
2022/10/26 15:13:46;;;;;;;12.57;5.78;;;;;;;;;;6303740;22;20018;-89
2022/10/26 15:16:20;;;;;;;18.13;6.45;;;;;;;;;;6302153;22;20050;-88
2022/10/26 15:18:47;;;;;;;14.80;6.22;;;;;;;;;;6276251;22;20027;-88
2022/10/26 15:33:52;;;;;;;11.57;6.95;;;;;;;;;;6279463;22;20019;-87
2022/10/26 15:36:24;;;;;;;10.57;6.25;;;;;;;;;;6282487;22;20027;-85
2022/10/26 15:38:58;;;;;;;13.38;6.38;;;;;;;;;;6279119;22;20090;-86
2022/10/26 15:44:24;;;;;;;12.02;6.85;;;;;;;;;;6314572;22;20019;-87
2022/10/26 15:46:51;;;;;;;6.22;5.60;;;;;;;;;;6314882;22;20031;-86
2022/10/26 15:49:49;;;;;;;9.55;6.75;;;;;;;;;;6293244;22;20023;-86
2022/10/26 15:52:27;;;;;;;9.07;5.65;;;;;;;;;;6218845;23;20012;-88
2022/10/26 15:55:02;;;;;;;9.18;6.00;;;;;;;;;;6218161;23;20079;-88
2022/10/26 15:57:33;;;;;;;13.27;6.78;;;;;;;;;;6216311;23;20020;-90
2022/10/26 16:07:06;;;;;;;13.63;7.30;;;;;;;;;;6278840;22;20530;-85
2022/10/26 16:09:32;;;;;;;15.75;7.32;;;;;;;;;;6302417;22;20026;-88
2022/10/26 16:12:01;;;;;;;14.10;7.53;;;;;;;;;;6303337;22;20022;-87
2022/10/26 16:14:31;;;;;;;11.38;7.65;;;;;;;;;;6303194;22;20110;-87
2022/10/26 16:17:19;;;;;;;11.48;8.48;;;;;;;;;;6304466;22;20123;-88
2022/10/26 16:22:54;;;;;;;17.48;8.23;;;;;;;;;;6221470;22;20085;-87
2022/10/26 16:26:01;;;;;;;12.73;8.18;;;;;;;;;;6275931;22;20026;-88
2022/10/26 16:44:38;;;;;;;12.65;8.73;;;;;;;;;;6276960;22;20105;-87
2022/10/26 17:21:50;;;;;;;17.38;8.43;;;;;;;;;;6256961;22;20064;-90
2022/10/26 18:18:30;;;;;;;17.98;8.95;;;;;;;;;;6229248;22;20078;-89
2022/10/26 18:21:01;;;;;;;14.70;8.65;;;;;;;;;;6247691;22;20024;-87
2022/10/26 18:23:37;;;;;;;;;;;;;;;;;;;;;
2022/10/26 18:26:17;;;;;;;12.18;8.85;;;;;;;;;;6279537;22;20054;-89
2022/10/26 18:36:39;;;;;;;12.68;9.13;;;;;;;;;;6276072;22;20016;-89
2022/10/26 18:39:30;;;;;;;11.57;9.75;;;;;;;;;;6247543;22;20027;-89
2022/10/26 18:42:28;;;;;;;13.25;9.88;;;;;;;;;;6251550;22;20031;-89
2022/10/26 18:45:23;;;;;;;11.63;9.82;;;;;;;;;;6273669;22;20077;-88
2022/10/26 18:47:50;;;;;;;11.45;9.43;;;;;;;;;;6277121;22;20023;-88
2022/10/26 19:03:16;;;;;;;12.00;9.23;;;;;;;;;;6305241;22;20077;-91
2022/10/26 19:27:07;;;;;;;11.95;8.40;;;;;;;;;;6272720;22;20534;-91
2022/10/26 19:30:09;;;;;;;12.15;8.55;;;;;;;;;;6245481;22;20122;-90
2022/10/26 19:32:41;;;;;;;10.63;9.40;;;;;;;;;;6098636;23;20057;-90
2022/10/26 19:35:13;;;;;;;11.65;9.35;;;;;;;;;;6219611;22;20019;-91
2022/10/26 19:38:04;;;;;;;18.08;9.73;;;;;;;;;;6227935;22;20023;-89
2022/10/26 19:40:31;;;;;;;17.38;10.27;;;;;;;;;;6255733;22;20015;-90
2022/10/26 19:43:00;;;;;;;15.65;9.85;;;;;;;;;;6232472;22;20053;-90
2022/10/26 19:47:52;;;;;;;13.63;9.90;;;;;;;;;;6290210;22;20038;-90
2022/10/26 19:53:39;;;;;;;12.52;9.90;;;;;;;;;;6303971;22;20344;-90
2022/10/26 19:56:27;;;;;;;11.35;9.60;;;;;;;;;;6277061;22;20046;-90
2022/10/26 19:59:02;;;;;;;15.13;10.45;;;;;;;;;;6276996;22;20023;-91
2022/10/26 20:01:43;;;;;;;19.80;10.77;;;;;;;;;;6253739;22;20030;-90
2022/10/26 20:04:13;;;;;;;11.68;10.40;;;;;;;;;;6252322;22;20020;-91
2022/10/26 20:06:55;;;;;;;11.52;10.07;;;;;;;;;;6232084;22;20019;-90
2022/10/26 20:09:21;;;;;;;14.23;10.98;;;;;;;;;;6228211;22;20018;-91
2022/10/26 20:12:03;;;;;;;17.50;10.88;;;;;;;;;;6277713;22;20472;-90
2022/10/26 20:14:44;;;;;;;16.33;10.55;;;;;;;;;;6259024;22;20015;-91
2022/10/26 20:17:10;;;;;;;14.05;10.57;;;;;;;;;;6234570;22;20110;-91
2022/10/26 20:19:39;;;;;;;18.10;10.70;;;;;;;;;;6234969;22;20087;-92
2022/10/26 20:22:05;;;;;;;17.92;10.65;;;;;;;;;;6258485;22;20026;-91
2022/10/26 20:24:31;;;;;;;15.32;10.63;;;;;;;;;;6281604;22;20057;-89
2022/10/26 20:26:57;;;;;;;12.25;10.35;;;;;;;;;;6259572;22;20015;-90
2022/10/26 20:29:33;;;;;;;15.95;10.80;;;;;;;;;;6264595;22;20030;-89
2022/10/26 20:32:00;;;;;;;15.40;11.02;;;;;;;;;;6267178;22;20023;-90
2022/10/26 20:34:27;;;;;;;21.15;12.07;;;;;;;;;;6254338;22;20073;-89
2022/10/26 20:36:53;;;;;;;14.43;10.95;;;;;;;;;;6252515;22;20447;-87
2022/10/26 20:39:19;;;;;;;16.70;11.25;;;;;;;;;;6274364;22;20034;-88
2022/10/26 20:41:46;;;;;;;13.82;10.25;;;;;;;;;;6251805;22;20186;-88
2022/10/26 20:44:17;;;;;;;14.48;11.70;;;;;;;;;;6248107;22;20015;-89
2022/10/26 20:46:44;;;;;;;15.07;9.93;;;;;;;;;;6252628;22;20023;-89
2022/10/26 20:49:10;;;;;;;15.68;11.98;;;;;;;;;;6250012;22;20026;-88
2022/10/26 20:51:42;;;;;;;17.67;10.95;;;;;;;;;;6225855;22;20023;-88
2022/10/26 20:54:32;;;;;;;16.00;10.50;;;;;;;;;;6251268;22;20047;-89
2022/10/26 20:57:00;;;;;;;22.88;11.98;;;;;;;;;;6246944;22;20415;-89
2022/10/26 20:59:39;;;;;;;19.35;11.88;;;;;;;;;;6301655;22;20070;-87
2022/10/26 21:02:12;;;;;;;17.83;12.25;;;;;;;;;;6275285;22;20023;-90
2022/10/26 21:04:44;;;;;;;17.23;12.35;;;;;;;;;;6274434;22;20023;-89
2022/10/26 21:07:21;;;;;;;17.50;12.73;;;;;;;;;;6244157;22;20351;-91
2022/10/26 21:10:10;;;;;;;19.35;12.30;;;;;;;;;;6246007;22;20406;-91
2022/10/26 21:12:36;;;;;;;17.92;12.35;;;;;;;;;;6272191;22;20038;-89
2022/10/26 21:15:02;;;;;;;20.52;12.45;;;;;;;;;;6272925;22;20051;-89
2022/10/26 21:17:34;;;;;;;15.85;13.50;;;;;;;;;;6272192;22;20015;-90
2022/10/26 21:20:07;;;;;;;16.88;13.05;;;;;;;;;;6275385;22;20022;-90
2022/10/26 21:22:34;;;;;;;24.88;12.90;;;;;;;;;;6273497;22;20459;-89
2022/10/26 21:27:36;;;;;;;19.70;12.95;;;;;;;;;;6210062;23;20025;-89
2022/10/26 21:30:13;;;;;;;23.10;13.52;;;;;;;;;;6207909;23;20025;-89
2022/10/26 21:32:42;;;;;;;20.85;14.35;;;;;;;;;;6209518;23;20025;-88
2022/10/26 21:35:32;;;;;;;20.27;14.10;;;;;;;;;;6181665;23;20025;-88
2022/10/26 21:38:01;;;;;;;20.33;14.15;;;;;;;;;;6181561;23;20029;-89
2022/10/26 21:40:29;;;;;;;20.95;14.98;;;;;;;;;;6207301;23;20083;-89
2022/10/26 21:42:55;;;;;;;21.75;15.02;;;;;;;;;;6182089;23;20017;-89
2022/10/26 21:45:21;;;;;;;26.52;16.42;;;;;;;;;;6182134;23;20023;-89
2022/10/26 21:47:53;;;;;;;23.27;15.95;;;;;;;;;;6184157;23;20023;-89
2022/10/26 21:50:25;;;;;;;21.13;15.80;;;;;;;;;;6209402;23;20533;-89
2022/10/26 21:52:52;;;;;;;16.95;15.10;;;;;;;;;;6181875;23;20031;-89
2022/10/26 21:55:21;;;;;;;23.33;17.05;;;;;;;;;;6208697;23;20020;-91
2022/10/26 21:57:52;;;;;;;22.20;17.00;;;;;;;;;;6181488;23;20096;-88
2022/10/26 22:00:21;;;;;;;23.88;16.88;;;;;;;;;;6207737;23;20027;-90
2022/10/26 22:02:56;;;;;;;23.60;15.75;;;;;;;;;;6185449;23;20442;-90
2022/10/26 22:05:41;;;;;;;21.65;16.50;;;;;;;;;;6182099;23;20022;-90
2022/10/26 22:08:07;;;;;;;;;;;;;;;;;;6185511;23;20024;-90
2022/10/26 22:10:33;;;;;;;21.40;15.10;;;;;;;;;;6205578;23;19920;-89
2022/10/26 22:12:59;;;;;;;17.83;13.52;;;;;;;;;;6157947;23;20059;-89
2022/10/26 22:15:25;;;;;;;21.40;15.27;;;;;;;;;;6156189;23;20016;-89